Time;durP1;ratioP1;P1;durP2;ratioP2;P2;SDS_P1;SDS_P2;PMS_P1;PMS_P2;Temp;Humidity;BMP_temperature;BMP_pressure;BME280_temperature;BME280_humidity;BME280_pressure;Samples;Min_cycle;Max_cycle;Signal;HPM_P1;HPM_P2
2022/04/03 00:00:22;;;;;;;10.10;1.50;;;;;;;-0.41;52.54;100011.87;106292;1271;23484;-57
2022/04/03 00:03:09;;;;;;;7.90;1.30;;;;;;;-0.45;52.64;100008.94;106198;1271;22580;-53
2022/04/03 00:05:43;;;;;;;8.00;1.70;;;;;;;-0.47;52.75;100007.48;106374;1271;24020;-58
2022/04/03 00:08:15;;;;;;;12.70;2.10;;;;;;;-0.48;52.85;100006.79;106204;1273;22619;-57
2022/04/03 00:10:47;;;;;;;11.40;1.90;;;;;;;-0.52;53.07;100006.36;106225;1271;23151;-56
2022/04/03 00:13:19;;;;;;;12.60;2.20;;;;;;;-0.60;53.58;100007.00;106234;1271;22681;-56
2022/04/03 00:15:50;;;;;;;10.10;2.00;;;;;;;-0.68;53.29;100008.98;107760;1271;24231;-58
2022/04/03 00:18:24;;;;;;;13.00;2.00;;;;;;;-0.72;53.54;100005.27;106970;1271;22743;-57
2022/04/03 00:20:56;;;;;;;10.80;2.00;;;;;;;-0.75;53.68;100001.85;106888;1271;22700;-56
2022/04/03 00:23:27;;;;;;;6.80;1.70;;;;;;;-0.79;53.38;100000.09;106539;1271;26757;-56
2022/04/03 00:25:58;;;;;;;14.50;2.10;;;;;;;-0.81;53.59;100001.05;109736;1271;22438;-56
2022/04/03 00:28:30;;;;;;;9.90;1.60;;;;;;;-0.83;53.78;100002.34;106731;1271;22536;-56
2022/04/03 00:31:02;;;;;;;14.10;2.50;;;;;;;-0.85;54.06;100001.48;107364;1271;22595;-57
2022/04/03 00:33:34;;;;;;;9.20;1.50;;;;;;;-0.88;53.92;99996.89;106340;1271;22561;-53
2022/04/03 00:36:06;;;;;;;12.50;1.90;;;;;;;-0.90;53.97;99998.56;106272;1271;22672;-54
2022/04/03 00:38:37;;;;;;;9.60;2.20;;;;;;;-0.91;54.12;99997.34;106302;1271;22676;-57
2022/04/03 00:41:09;;;;;;;12.00;2.20;;;;;;;-0.92;54.06;100000.77;106280;1271;22758;-59
2022/04/03 00:43:40;;;;;;;9.80;1.70;;;;;;;-0.92;54.15;100002.27;106380;1271;22527;-53
2022/04/03 00:46:14;;;;;;;9.40;2.10;;;;;;;-0.93;54.52;100004.08;106256;1270;24266;-54
2022/04/03 00:48:47;;;;;;;10.50;1.80;;;;;;;-0.93;54.33;100005.17;106243;1271;22548;-53
2022/04/03 00:51:19;;;;;;;9.30;1.60;;;;;;;-0.93;54.22;100001.95;106325;1271;22742;-56
2022/04/03 00:53:50;;;;;;;11.70;2.00;;;;;;;-0.94;54.30;100001.52;106341;1271;22640;-53
2022/04/03 00:56:21;;;;;;;13.60;1.60;;;;;;;-0.93;54.62;100002.73;106231;1271;22669;-56
2022/04/03 00:58:53;;;;;;;10.60;1.60;;;;;;;-0.95;54.55;100005.75;106167;1271;23070;-57
2022/04/03 01:01:24;;;;;;;8.00;1.40;;;;;;;-0.98;54.71;100008.60;106130;1271;22861;-57
2022/04/03 01:03:55;;;;;;;10.70;1.40;;;;;;;-0.99;54.69;100010.00;106033;1271;22610;-56
2022/04/03 01:06:27;;;;;;;9.20;1.50;;;;;;;-1.01;54.92;100011.45;106278;1271;23150;-58
2022/04/03 01:08:58;;;;;;;10.80;2.10;;;;;;;-1.04;55.21;100016.64;106490;1271;27013;-57
2022/04/03 01:11:30;;;;;;;7.20;1.10;;;;;;;-1.07;55.13;100022.22;106189;1271;22635;-55
2022/04/03 01:14:02;;;;;;;7.80;1.50;;;;;;;-1.09;55.19;100021.45;106123;1271;22739;-56
2022/04/03 01:16:33;;;;;;;10.50;1.20;;;;;;;-1.12;55.22;100020.23;108681;1271;25960;-56
2022/04/03 01:19:05;;;;;;;9.00;1.40;;;;;;;-1.14;55.57;100025.41;107914;1271;25624;-55
2022/04/03 01:21:36;;;;;;;12.00;1.40;;;;;;;-1.18;55.60;100020.29;106193;1271;25593;-56
2022/04/03 01:24:19;;;;;;;11.90;2.20;;;;;;;-1.19;55.41;100022.96;106133;1272;24170;-54
2022/04/03 01:26:51;;;;;;;10.60;1.30;;;;;;;-1.21;55.68;100020.01;106119;1271;22628;-56
2022/04/03 01:29:23;;;;;;;10.00;1.40;;;;;;;-1.24;55.97;100021.83;106249;1271;24288;-56
2022/04/03 01:31:56;;;;;;;8.60;1.30;;;;;;;-1.25;56.38;100024.73;106178;1270;22786;-56
2022/04/03 01:34:28;;;;;;;9.80;1.60;;;;;;;-1.28;56.34;100027.19;106266;1271;24212;-55
2022/04/03 01:37:01;;;;;;;7.30;1.20;;;;;;;-1.30;56.08;100026.09;108257;1271;26528;-56
2022/04/03 01:39:34;;;;;;;13.80;1.60;;;;;;;-1.31;56.20;100027.21;107337;1271;22651;-58
2022/04/03 01:42:07;;;;;;;11.90;1.40;;;;;;;-1.31;56.32;100032.06;106289;1271;26212;-53
2022/04/03 01:44:38;;;;;;;7.80;1.20;;;;;;;-1.33;56.68;100033.48;106254;1270;23186;-56
2022/04/03 01:47:10;;;;;;;8.80;1.60;;;;;;;-1.35;56.57;100029.90;106255;1271;22726;-58
2022/04/03 01:49:41;;;;;;;11.90;1.80;;;;;;;-1.35;56.69;100034.36;106334;1270;26817;-54
2022/04/03 01:52:13;;;;;;;9.70;1.40;;;;;;;-1.35;56.59;100033.43;106212;1270;22695;-53
2022/04/03 01:54:45;;;;;;;4.20;1.10;;;;;;;-1.36;56.79;100033.83;106319;1270;22543;-58
2022/04/03 01:57:18;;;;;;;8.70;1.60;;;;;;;-1.39;57.06;100036.51;107954;1271;22842;-57
2022/04/03 01:59:50;;;;;;;14.60;1.30;;;;;;;-1.43;56.98;100036.84;107042;1271;22892;-54
2022/04/03 02:02:21;;;;;;;9.10;1.60;;;;;;;-1.44;57.19;100035.61;106337;1270;22637;-54
2022/04/03 02:04:53;;;;;;;11.40;1.60;;;;;;;-1.46;57.18;100037.81;106426;1271;22605;-57
2022/04/03 02:07:25;;;;;;;6.90;1.20;;;;;;;-1.46;57.53;100042.59;106201;1271;22685;-56
2022/04/03 02:09:56;;;;;;;6.20;1.50;;;;;;;-1.49;57.35;100044.55;106189;1270;22644;-58
2022/04/03 02:12:28;;;;;;;13.10;1.50;;;;;;;-1.48;57.28;100045.19;106471;1270;26331;-56
2022/04/03 02:15:00;;;;;;;11.20;1.60;;;;;;;-1.49;57.58;100049.17;106329;1270;22704;-56
2022/04/03 02:17:32;;;;;;;5.20;1.10;;;;;;;-1.51;57.72;100050.45;106037;1271;24236;-56
2022/04/03 02:20:03;;;;;;;8.70;1.30;;;;;;;-1.53;57.54;100053.51;107038;1271;22598;-56
2022/04/03 02:22:35;;;;;;;6.40;1.30;;;;;;;-1.55;57.61;100054.84;106173;1271;24093;-55
2022/04/03 02:25:11;;;;;;;8.10;1.50;;;;;;;-1.57;57.90;100058.87;106329;1271;25338;-53
2022/04/03 02:27:49;;;;;;;11.20;1.80;;;;;;;-1.59;57.79;100061.76;106131;1271;23873;-57
2022/04/03 02:30:22;;;;;;;8.80;1.40;;;;;;;-1.60;57.91;100059.50;106202;1271;24836;-57
2022/04/03 02:32:53;;;;;;;9.50;2.10;;;;;;;-1.62;57.93;100060.92;106231;1271;26028;-55
2022/04/03 02:35:24;;;;;;;9.20;1.50;;;;;;;-1.61;57.85;100058.58;106208;1271;22602;-57
2022/04/03 02:37:56;;;;;;;9.80;1.40;;;;;;;-1.62;57.82;100057.64;107057;1271;22644;-57
2022/04/03 02:40:27;;;;;;;9.50;1.80;;;;;;;-1.64;58.29;100054.68;106511;1270;24228;-53
2022/04/03 02:42:59;;;;;;;9.10;1.50;;;;;;;-1.66;58.12;100055.48;106192;1271;22790;-55
2022/04/03 02:45:30;;;;;;;11.00;1.80;;;;;;;-1.67;58.40;100059.07;106250;1271;25590;-58
2022/04/03 02:48:02;;;;;;;9.00;1.60;;;;;;;-1.67;58.15;100056.11;106236;1270;24104;-53
2022/04/03 02:50:34;;;;;;;10.40;1.60;;;;;;;-1.68;58.08;100058.30;106223;1271;22840;-55
2022/04/03 02:53:06;;;;;;;9.70;1.60;;;;;;;-1.69;58.42;100064.17;106794;1271;22622;-59
2022/04/03 02:55:37;;;;;;;11.10;1.70;;;;;;;-1.71;58.49;100068.71;106325;1271;22770;-54
2022/04/03 02:58:10;;;;;;;6.80;1.50;;;;;;;-1.74;58.75;100077.49;106034;1271;27874;-55
2022/04/03 03:00:42;;;;;;;7.10;1.70;;;;;;;-1.76;58.57;100077.27;106217;1271;22708;-54
2022/04/03 03:03:13;;;;;;;11.90;1.50;;;;;;;-1.79;58.73;100080.27;109793;1270;23419;-56
2022/04/03 03:05:45;;;;;;;13.40;1.90;;;;;;;-1.83;58.92;100080.91;109772;1271;22234;-55
2022/04/03 03:08:18;;;;;;;12.70;1.90;;;;;;;-1.87;58.66;100081.08;106157;1270;22698;-56
2022/04/03 03:10:49;;;;;;;10.20;1.50;;;;;;;-1.89;58.80;100082.82;106247;1271;22629;-57
2022/04/03 03:13:20;;;;;;;7.40;1.40;;;;;;;-1.91;59.01;100086.58;106117;1271;22646;-56
2022/04/03 03:15:52;;;;;;;9.50;2.00;;;;;;;-1.93;59.01;100089.34;106172;1271;26421;-55
2022/04/03 03:18:24;;;;;;;8.30;1.50;;;;;;;-1.96;59.33;100089.58;106223;1271;24236;-56
2022/04/03 03:20:55;;;;;;;13.00;2.20;;;;;;;-1.99;59.37;100089.05;106223;1271;25566;-53
2022/04/03 03:23:27;;;;;;;11.00;1.40;;;;;;;-2.02;59.54;100092.02;106249;1271;24267;-56
2022/04/03 03:25:58;;;;;;;10.10;1.70;;;;;;;-2.06;59.47;100091.27;106213;1270;24222;-54
2022/04/03 03:28:30;;;;;;;11.40;1.80;;;;;;;-2.10;59.85;100095.73;106349;1271;24750;-55
2022/04/03 03:31:01;;;;;;;9.10;1.80;;;;;;;-2.14;59.95;100096.70;106185;1271;27849;-57
2022/04/03 03:33:33;;;;;;;8.20;1.50;;;;;;;-2.18;60.11;100091.56;106194;1270;22711;-55
2022/04/03 03:36:07;;;;;;;11.80;2.10;;;;;;;-2.21;60.40;100099.84;106058;1272;24158;-55
2022/04/03 03:38:40;;;;;;;13.00;1.80;;;;;;;-2.23;60.41;100096.25;106218;1270;25885;-56
2022/04/03 03:41:14;;;;;;;12.20;1.70;;;;;;;-2.26;60.59;100099.16;106279;1270;25538;-53
2022/04/03 03:43:47;;;;;;;9.60;1.80;;;;;;;-2.28;61.06;100102.60;106131;1271;22911;-55
2022/04/03 03:46:19;;;;;;;9.50;1.50;;;;;;;-2.31;61.12;100104.17;106185;1271;23115;-57
2022/04/03 03:48:51;;;;;;;13.40;1.70;;;;;;;-2.33;61.26;100107.79;106279;1270;22756;-57
2022/04/03 03:51:22;;;;;;;10.80;1.50;;;;;;;-2.36;61.50;100113.95;106295;1271;25708;-55
2022/04/03 03:53:54;;;;;;;8.00;1.60;;;;;;;-2.39;61.70;100117.48;106157;1273;23090;-53
2022/04/03 03:56:25;;;;;;;10.80;2.50;;;;;;;-2.41;61.68;100119.98;106211;1271;24375;-53
2022/04/03 03:58:57;;;;;;;11.80;1.60;;;;;;;-2.43;62.22;100121.94;106217;1271;25139;-55
2022/04/03 04:01:29;;;;;;;10.70;2.00;;;;;;;-2.44;62.09;100123.04;106434;1271;24476;-54
2022/04/03 04:04:00;;;;;;;10.00;1.50;;;;;;;-2.46;62.81;100125.00;106257;1270;22623;-53
2022/04/03 04:06:31;;;;;;;11.40;1.50;;;;;;;-2.49;62.90;100125.02;106218;1270;22692;-53
2022/04/03 04:09:03;;;;;;;10.80;1.80;;;;;;;-2.51;63.22;100133.37;107246;1270;25684;-55
2022/04/03 04:11:35;;;;;;;8.90;1.40;;;;;;;-2.52;63.29;100135.80;107479;1270;22680;-55
2022/04/03 04:14:06;;;;;;;9.60;1.80;;;;;;;-2.53;64.12;100139.23;106358;1271;23188;-58
2022/04/03 04:16:38;;;;;;;14.30;2.20;;;;;;;-2.54;63.85;100141.88;106290;1271;22758;-54
2022/04/03 04:19:09;;;;;;;8.10;1.50;;;;;;;-2.55;63.83;100146.34;106526;1271;22675;-54
2022/04/03 04:21:41;;;;;;;12.10;2.00;;;;;;;-2.55;64.01;100146.73;106346;1270;24230;-58
2022/04/03 04:24:13;;;;;;;7.80;1.60;;;;;;;-2.56;64.28;100148.76;106072;1271;22641;-58
2022/04/03 04:26:44;;;;;;;15.50;1.80;;;;;;;-2.55;64.08;100158.28;106847;1270;22653;-55
2022/04/03 04:29:16;;;;;;;10.10;2.40;;;;;;;-2.55;64.08;100158.36;106363;1271;22641;-54
2022/04/03 04:31:47;;;;;;;7.90;1.40;;;;;;;-2.56;64.13;100161.02;106144;1270;25605;-56
2022/04/03 04:34:18;;;;;;;9.50;1.60;;;;;;;-2.56;64.46;100163.82;106191;1271;22585;-56
2022/04/03 04:36:50;;;;;;;7.20;1.50;;;;;;;-2.57;64.54;100167.05;106196;1270;24232;-54
2022/04/03 04:39:21;;;;;;;10.00;1.90;;;;;;;-2.57;65.05;100168.13;108384;1270;23235;-53
2022/04/03 04:41:53;;;;;;;9.70;1.80;;;;;;;-2.57;65.03;100170.01;106158;1270;24345;-56
2022/04/03 04:44:25;;;;;;;8.90;2.00;;;;;;;-2.57;65.14;100172.58;106547;1260;24575;-62
2022/04/03 04:46:56;;;;;;;9.40;1.70;;;;;;;-2.57;65.11;100179.06;109824;1270;22299;-63
2022/04/03 04:49:28;;;;;;;10.00;1.60;;;;;;;-2.56;65.69;100185.70;108318;1270;24348;-62
2022/04/03 04:52:00;;;;;;;8.00;1.20;;;;;;;-2.55;65.39;100186.40;106277;1269;22552;-63
2022/04/03 04:54:31;;;;;;;8.90;1.40;;;;;;;-2.53;65.84;100187.10;106158;1271;22605;-63
2022/04/03 04:57:03;;;;;;;9.20;1.40;;;;;;;-2.52;65.90;100187.56;106057;1271;22653;-63
2022/04/03 04:59:34;;;;;;;8.20;1.60;;;;;;;-2.50;66.36;100191.08;106027;1271;22627;-62
2022/04/03 05:02:06;;;;;;;9.00;1.30;;;;;;;-2.50;66.35;100184.90;106890;1271;24947;-63
2022/04/03 05:04:38;;;;;;;9.60;1.50;;;;;;;-2.48;66.61;100187.25;106002;1271;24261;-63
2022/04/03 05:07:12;;;;;;;8.50;1.70;;;;;;;-2.47;66.57;100192.32;106023;1271;25669;-65
2022/04/03 05:09:44;;;;;;;8.00;1.30;;;;;;;-2.45;66.33;100195.20;108050;1270;22652;-62
2022/04/03 05:12:17;;;;;;;9.00;2.40;;;;;;;-2.42;66.94;100196.21;106047;1271;24274;-63
2022/04/03 05:14:50;;;;;;;13.60;2.00;;;;;;;-2.40;66.99;100198.79;105991;1270;22768;-63
2022/04/03 05:17:21;;;;;;;8.90;1.30;;;;;;;-2.37;66.95;100202.63;106114;1270;24295;-62
2022/04/03 05:19:53;;;;;;;11.00;1.70;;;;;;;-2.35;67.07;100202.86;108804;1271;22643;-63
2022/04/03 05:22:26;;;;;;;8.40;1.60;;;;;;;-2.32;66.99;100204.88;106599;1271;22869;-62
2022/04/03 05:24:57;;;;;;;7.50;1.70;;;;;;;-2.29;67.00;100205.58;105862;1271;22613;-64
2022/04/03 05:27:29;;;;;;;10.40;1.80;;;;;;;-2.24;67.44;100208.54;105935;1271;25456;-65
2022/04/03 05:30:03;;;;;;;8.60;1.70;;;;;;;-2.21;67.32;100213.91;105831;1271;22691;-63
2022/04/03 05:32:35;;;;;;;9.90;1.80;;;;;;;-2.19;67.35;100215.17;105816;1271;24316;-65
2022/04/03 05:35:10;;;;;;;10.80;1.80;;;;;;;-2.17;67.36;100216.48;105748;1271;25588;-65
2022/04/03 05:37:41;;;;;;;8.50;1.80;;;;;;;-2.15;67.27;100221.56;106772;1271;23351;-62
2022/04/03 05:40:15;;;;;;;10.90;1.80;;;;;;;-2.13;67.47;100221.48;105913;1271;22600;-65
2022/04/03 05:42:49;;;;;;;7.80;1.40;;;;;;;-2.11;67.65;100227.41;106022;1271;22646;-64
2022/04/03 05:45:21;;;;;;;7.20;1.60;;;;;;;-2.09;67.48;100228.20;106346;1270;22582;-62
2022/04/03 05:47:53;;;;;;;5.70;1.40;;;;;;;-2.07;67.37;100231.00;105993;1270;23931;-62
2022/04/03 05:50:26;;;;;;;12.20;1.90;;;;;;;-2.05;67.33;100230.91;105945;1271;24225;-63
2022/04/03 05:52:57;;;;;;;7.30;1.50;;;;;;;-2.03;67.18;100235.36;106157;1268;24326;-64
2022/04/03 05:55:29;;;;;;;8.30;1.40;;;;;;;-2.01;67.58;100239.59;106075;1270;24373;-61
2022/04/03 05:58:01;;;;;;;7.90;1.60;;;;;;;-2.01;67.60;100242.95;106117;1271;22699;-63
2022/04/03 06:00:34;;;;;;;9.40;1.60;;;;;;;-2.01;67.77;100243.59;106043;1270;25594;-61
2022/04/03 06:03:06;;;;;;;6.50;1.60;;;;;;;-2.00;67.31;100242.80;105988;1271;24591;-61
2022/04/03 06:05:38;;;;;;;8.50;1.50;;;;;;;-1.98;67.68;100249.11;105789;1271;22652;-62
2022/04/03 06:08:10;;;;;;;12.80;1.80;;;;;;;-1.97;67.67;100248.64;105914;1270;26366;-63
2022/04/03 06:10:41;;;;;;;7.70;1.50;;;;;;;-1.94;67.94;100248.17;105640;1270;24312;-63
2022/04/03 06:13:14;;;;;;;8.30;1.30;;;;;;;-1.91;67.62;100254.73;105872;1271;24205;-62
2022/04/03 06:15:47;;;;;;;7.10;1.50;;;;;;;-1.88;67.90;100257.22;105845;1271;22689;-62
2022/04/03 06:18:20;;;;;;;11.80;1.70;;;;;;;-1.85;67.65;100260.27;105720;1271;25619;-61
2022/04/03 06:20:52;;;;;;;10.40;1.60;;;;;;;-1.83;67.51;100260.89;105877;1271;25517;-62
2022/04/03 06:23:24;;;;;;;7.90;1.70;;;;;;;-1.76;67.41;100267.04;105770;1271;24741;-60
2022/04/03 06:26:00;;;;;;;12.20;1.40;;;;;;;-1.67;67.61;100270.23;105921;1270;22598;-63
2022/04/03 06:28:32;;;;;;;10.70;1.70;;;;;;;-1.58;67.72;100271.59;106116;1271;23916;-62
2022/04/03 06:31:04;;;;;;;10.30;1.30;;;;;;;-1.53;67.30;100276.74;107144;1270;24311;-61
2022/04/03 06:33:37;;;;;;;9.00;1.90;;;;;;;-1.50;67.42;100276.80;106054;1270;22788;-62
2022/04/03 06:36:09;;;;;;;6.80;1.50;;;;;;;-1.47;67.19;100279.30;105984;1271;22727;-65
2022/04/03 06:38:41;;;;;;;7.10;1.60;;;;;;;-1.44;67.11;100279.14;106208;1271;24349;-63
2022/04/03 06:41:12;;;;;;;10.20;1.60;;;;;;;-1.40;67.26;100283.98;105457;1271;24964;-66
2022/04/03 06:43:44;;;;;;;9.60;1.80;;;;;;;-1.36;67.20;100288.10;105905;1270;22592;-62
2022/04/03 06:46:17;;;;;;;11.40;2.20;;;;;;;-1.34;67.23;100286.91;105853;1271;24071;-64
2022/04/03 06:48:48;;;;;;;10.20;1.70;;;;;;;-1.32;67.03;100286.74;106025;1271;24124;-62
2022/04/03 06:51:20;;;;;;;6.30;1.40;;;;;;;-1.30;66.95;100294.41;106030;1271;24669;-63
2022/04/03 06:53:52;;;;;;;9.60;1.80;;;;;;;-1.27;66.87;100296.20;106086;1271;22616;-64
2022/04/03 06:56:26;;;;;;;13.90;2.00;;;;;;;-1.26;66.94;100299.02;105986;1271;22541;-62
2022/04/03 06:58:58;;;;;;;10.00;1.80;;;;;;;-1.25;66.79;100298.30;107880;1270;25241;-66
2022/04/03 07:01:30;;;;;;;7.90;1.80;;;;;;;-1.23;66.65;100300.40;109166;1270;22687;-67
2022/04/03 07:04:02;;;;;;;10.90;1.50;;;;;;;-1.22;66.74;100300.64;106168;1271;26808;-61
2022/04/03 07:06:33;;;;;;;15.40;3.00;;;;;;;-1.18;66.69;100306.48;105972;1271;22749;-60
2022/04/03 07:09:05;;;;;;;9.50;1.60;;;;;;;-1.10;66.67;100307.55;107259;1271;24215;-60
2022/04/03 07:11:37;;;;;;;12.00;2.00;;;;;;;-1.00;66.86;100310.55;105999;1271;22799;-65
2022/04/03 07:14:08;;;;;;;10.50;2.70;;;;;;;-0.88;66.66;100310.41;106192;1271;26846;-61
2022/04/03 07:16:40;;;;;;;12.80;2.50;;;;;;;-0.77;66.54;100313.23;106046;1271;25685;-62
2022/04/03 07:19:12;;;;;;;10.80;2.50;;;;;;;-0.63;66.38;100316.61;107372;1270;24232;-57
2022/04/03 07:21:43;;;;;;;9.10;1.90;;;;;;;-0.53;66.22;100314.02;105981;1271;25608;-61
2022/04/03 07:24:15;;;;;;;10.10;1.90;;;;;;;-0.41;65.83;100319.82;106096;1271;24117;-59
2022/04/03 07:26:46;;;;;;;8.40;2.20;;;;;;;-0.36;65.66;100318.84;106223;1270;22673;-59
2022/04/03 07:29:18;;;;;;;11.40;2.10;;;;;;;-0.33;65.39;100323.75;106302;1271;23131;-60
2022/04/03 07:31:49;;;;;;;8.80;2.00;;;;;;;-0.33;65.42;100324.38;106391;1271;25960;-59
2022/04/03 07:34:21;;;;;;;8.50;2.10;;;;;;;-0.31;65.28;100322.80;106352;1271;22717;-61
2022/04/03 07:36:52;;;;;;;11.10;2.30;;;;;;;-0.31;65.27;100326.49;106251;1270;24573;-61
2022/04/03 07:39:24;;;;;;;12.50;2.10;;;;;;;-0.31;65.22;100328.20;106138;1271;23260;-60
2022/04/03 07:41:56;;;;;;;13.20;1.90;;;;;;;-0.27;65.27;100328.11;106263;1271;22630;-58
2022/04/03 07:44:27;;;;;;;11.30;2.40;;;;;;;-0.18;65.28;100329.59;106296;1270;22660;-64
2022/04/03 07:46:58;;;;;;;9.60;1.90;;;;;;;-0.03;65.27;100332.06;106376;1271;26921;-63
2022/04/03 07:49:30;;;;;;;7.90;1.40;;;;;;;0.12;64.62;100329.80;106053;1271;25612;-62
2022/04/03 07:52:02;;;;;;;9.20;1.60;;;;;;;0.24;63.95;100333.61;106208;1271;25678;-56
2022/04/03 07:54:35;;;;;;;9.50;1.90;;;;;;;0.36;63.93;100333.80;106127;1270;22876;-59
2022/04/03 07:57:07;;;;;;;10.40;1.30;;;;;;;0.49;63.92;100332.34;105943;1271;25639;-61
2022/04/03 07:59:39;;;;;;;7.30;1.30;;;;;;;0.61;63.15;100337.46;105874;1271;22831;-61
2022/04/03 08:02:11;;;;;;;6.70;1.20;;;;;;;0.72;62.17;100339.06;106006;1271;26401;-62
2022/04/03 08:04:43;;;;;;;8.80;1.70;;;;;;;0.82;61.84;100337.15;105849;1271;25551;-58
2022/04/03 08:07:15;;;;;;;5.80;1.30;;;;;;;0.92;61.94;100337.81;107919;1268;25689;-56
2022/04/03 08:09:46;;;;;;;4.60;1.30;;;;;;;1.00;61.16;100338.20;107493;1270;24203;-61
2022/04/03 08:12:18;;;;;;;7.20;1.40;;;;;;;1.12;62.07;100339.73;106102;1271;25559;-56
2022/04/03 08:14:52;;;;;;;7.40;1.50;;;;;;;1.29;62.16;100341.58;105910;1271;22642;-58
2022/04/03 08:17:24;;;;;;;5.00;1.20;;;;;;;1.45;60.80;100343.77;105968;1271;22622;-58
2022/04/03 08:19:57;;;;;;;6.80;1.40;;;;;;;1.60;60.37;100338.29;105814;1271;25356;-60
2022/04/03 08:22:29;;;;;;;7.30;1.40;;;;;;;1.69;60.27;100343.27;106100;1271;24215;-59
2022/04/03 08:25:01;;;;;;;4.10;1.00;;;;;;;1.68;60.00;100344.39;106103;1271;25514;-59
2022/04/03 08:27:45;;;;;;;5.40;1.30;;;;;;;1.60;59.50;100349.38;108170;1271;24503;-59
2022/04/03 08:30:18;;;;;;;4.50;0.90;;;;;;;1.49;58.81;100351.35;107760;1271;25398;-60
2022/04/03 08:32:50;;;;;;;6.40;1.30;;;;;;;1.47;58.99;100347.52;105880;1271;24251;-59
2022/04/03 08:35:24;;;;;;;5.90;1.30;;;;;;;1.48;59.59;100353.64;106123;1271;24382;-57
2022/04/03 08:37:56;;;;;;;11.60;1.30;;;;;;;1.52;59.46;100351.00;106054;1271;22994;-59
2022/04/03 08:40:28;;;;;;;5.30;1.00;;;;;;;1.57;58.49;100354.52;106206;1271;26702;-59
2022/04/03 08:43:00;;;;;;;3.80;1.00;;;;;;;1.57;56.58;100361.52;106020;1271;23263;-59
2022/04/03 08:45:31;;;;;;;7.10;1.10;;;;;;;1.49;57.82;100356.05;105832;1269;25448;-59
2022/04/03 08:48:04;;;;;;;5.10;1.20;;;;;;;1.44;57.10;100355.51;107673;1271;22561;-59
2022/04/03 08:50:38;;;;;;;9.10;1.10;;;;;;;1.43;57.89;100357.56;105987;1270;24469;-60
2022/04/03 08:53:10;;;;;;;6.20;1.10;;;;;;;1.48;57.46;100360.16;105934;1271;24071;-59
2022/04/03 08:55:41;;;;;;;5.10;1.20;;;;;;;1.60;57.22;100359.37;105879;1271;22560;-58
2022/04/03 08:58:13;;;;;;;4.70;0.80;;;;;;;1.78;56.34;100354.70;105913;1271;24219;-59
2022/04/03 09:00:45;;;;;;;4.90;0.80;;;;;;;1.95;54.79;100351.90;105991;1271;22525;-57
2022/04/03 09:03:16;;;;;;;6.40;0.90;;;;;;;2.06;54.41;100358.79;105893;1271;22591;-55
2022/04/03 09:05:48;;;;;;;5.10;0.90;;;;;;;2.08;54.64;100360.97;105838;1270;24384;-53
2022/04/03 09:08:19;;;;;;;4.80;1.00;;;;;;;2.05;54.10;100362.11;105845;1271;25618;-55
2022/04/03 09:11:05;;;;;;;3.70;0.60;;;;;;;2.03;52.85;100369.00;105908;1271;25339;-59
2022/04/03 09:13:37;;;;;;;6.30;0.90;;;;;;;2.01;53.09;100374.36;105920;1271;24252;-56
2022/04/03 09:16:10;;;;;;;3.60;0.90;;;;;;;2.02;54.12;100378.38;105972;1271;22779;-57
2022/04/03 09:18:52;;;;;;;4.50;1.00;;;;;;;1.99;54.18;100373.55;105702;1271;23291;-54
2022/04/03 09:21:26;;;;;;;6.20;1.00;;;;;;;2.00;53.04;100373.85;105716;1271;22553;-57
2022/04/03 09:24:06;;;;;;;4.80;0.90;;;;;;;2.03;51.56;100369.63;105849;1271;23175;-59
2022/04/03 09:26:39;;;;;;;6.00;0.60;;;;;;;2.06;52.00;100367.45;106002;1270;22525;-57
2022/04/03 09:29:15;;;;;;;5.30;0.80;;;;;;;2.12;51.94;100372.62;105766;1271;23246;-58
2022/04/03 09:31:49;;;;;;;4.90;1.10;;;;;;;2.18;51.68;100370.01;105895;1271;22615;-61
2022/04/03 09:34:21;;;;;;;4.00;0.80;;;;;;;2.27;52.17;100377.01;105898;1271;489784;-56
2022/04/03 09:37:00;;;;;;;2.60;0.80;;;;;;;2.43;51.49;100380.69;105659;1271;22526;-59
2022/04/03 09:39:32;;;;;;;4.30;0.80;;;;;;;2.51;51.50;100376.13;105820;1271;22605;-62
2022/04/03 09:42:08;;;;;;;3.00;0.60;;;;;;;2.56;51.11;100378.47;105938;1271;22541;-64
2022/04/03 09:44:42;;;;;;;10.40;0.80;;;;;;;2.64;50.86;100378.80;107544;1271;22550;-65
2022/04/03 09:47:26;;;;;;;2.20;0.50;;;;;;;2.73;49.30;100378.71;105941;1271;22554;-62
2022/04/03 09:49:59;;;;;;;4.30;0.70;;;;;;;2.87;49.04;100375.98;105824;1271;22544;-64
2022/04/03 09:52:44;;;;;;;6.60;1.00;;;;;;;2.98;48.58;100381.61;107004;1271;22608;-62
2022/04/03 09:55:20;;;;;;;5.20;1.00;;;;;;;2.99;48.60;100380.09;106524;1261;98899;-75
2022/04/03 09:58:04;;;;;;;6.40;0.90;;;;;;;2.97;48.87;100381.63;106830;1271;25381;-76
2022/04/03 10:00:41;;;;;;;3.90;1.10;;;;;;;2.93;48.92;100376.42;106822;1270;22593;-76
2022/04/03 10:03:14;;;;;;;4.00;0.70;;;;;;;2.95;49.42;100375.60;106800;1271;25297;-75
2022/04/03 10:05:46;;;;;;;3.70;0.80;;;;;;;3.06;48.23;100378.84;106869;1271;22568;-76
2022/04/03 10:08:18;;;;;;;9.20;1.30;;;;;;;3.10;49.24;100376.40;106626;1271;22694;-75
2022/04/03 10:10:50;;;;;;;5.70;1.00;;;;;;;3.13;47.72;100380.20;106755;1271;23729;-75
2022/04/03 10:13:23;;;;;;;5.40;0.70;;;;;;;3.09;46.58;100383.27;106733;1269;24221;-75
2022/04/03 10:15:54;;;;;;;4.10;0.60;;;;;;;2.99;46.87;100384.50;106722;1271;25471;-75
2022/04/03 10:18:26;;;;;;;5.80;0.90;;;;;;;2.94;47.74;100385.93;106657;1271;22540;-74
2022/04/03 10:20:58;;;;;;;2.90;0.70;;;;;;;2.93;47.86;100384.54;106826;1271;22526;-75
2022/04/03 10:23:34;;;;;;;3.30;0.80;;;;;;;2.90;47.92;100382.95;106636;1271;22663;-75
2022/04/03 10:26:07;;;;;;;3.20;0.70;;;;;;;2.85;48.73;100386.74;106676;1271;22575;-76
2022/04/03 10:28:45;;;;;;;2.90;0.80;;;;;;;2.90;48.97;100389.79;106596;1270;22710;-76
2022/04/03 10:31:18;;;;;;;6.10;1.00;;;;;;;2.92;49.34;100385.36;106740;1271;25457;-75
2022/04/03 10:33:52;;;;;;;4.90;0.90;;;;;;;2.99;49.60;100386.48;106826;1271;22564;-75
2022/04/03 10:36:30;;;;;;;5.00;0.70;;;;;;;3.06;49.37;100384.67;106644;1271;22550;-74
2022/04/03 10:39:05;;;;;;;4.30;0.80;;;;;;;3.09;48.50;100384.21;106694;1271;22695;-75
2022/04/03 10:41:39;;;;;;;6.40;0.70;;;;;;;3.16;48.95;100380.46;106725;1271;22526;-76
2022/04/03 10:44:22;;;;;;;6.10;0.90;;;;;;;3.27;48.47;100378.17;106750;1270;22541;-75
2022/04/03 10:47:25;;;;;;;3.80;0.60;;;;;;;3.38;47.90;100379.21;107096;1269;25338;-75
2022/04/03 10:50:05;;;;;;;4.40;0.60;;;;;;;3.45;47.54;100379.98;106317;1274;23404;-74
2022/04/03 10:52:58;;;;;;;3.80;0.60;;;;;;;3.44;46.14;100382.70;106417;1274;22679;-75
2022/04/03 10:55:36;;;;;;;4.50;0.60;;;;;;;3.36;47.72;100383.34;106360;1273;22652;-75
2022/04/03 10:58:18;;;;;;;2.30;0.70;;;;;;;3.28;47.88;100390.14;106262;1274;22515;-74
2022/04/03 11:00:52;;;;;;;3.60;0.90;;;;;;;3.11;48.62;100392.61;106423;1274;23538;-76
2022/04/03 11:03:39;;;;;;;4.60;0.80;;;;;;;2.91;48.27;100393.09;107691;1273;23545;-75
2022/04/03 11:06:32;;;;;;;8.00;0.80;;;;;;;2.73;48.36;100392.98;106247;1274;24287;-74
2022/04/03 11:09:14;;;;;;;6.40;1.00;;;;;;;2.56;48.30;100387.93;106736;1273;25198;-75
2022/04/03 11:11:58;;;;;;;3.20;0.60;;;;;;;2.51;48.85;100388.80;108785;1273;22577;-75
2022/04/03 11:15:06;;;;;;;5.50;0.60;;;;;;;2.49;48.22;100387.73;107113;1273;22564;-74
2022/04/03 11:17:54;;;;;;;4.50;0.90;;;;;;;2.57;48.94;100386.73;106234;1274;22567;-74
2022/04/03 11:20:42;;;;;;;3.40;0.60;;;;;;;2.69;48.52;100388.14;106387;1271;22874;-71
2022/04/03 11:23:17;;;;;;;3.30;0.60;;;;;;;2.77;48.50;100387.45;107236;1271;22527;-74
2022/04/03 11:25:50;;;;;;;5.90;0.90;;;;;;;2.89;48.32;100387.61;106765;1271;22563;-74
2022/04/03 11:28:23;;;;;;;2.30;0.50;;;;;;;3.00;47.98;100389.05;106721;1271;22555;-77
2022/04/03 11:30:54;;;;;;;4.60;0.70;;;;;;;3.09;47.05;100386.98;106730;1270;27764;-74
2022/04/03 11:33:27;;;;;;;7.10;1.10;;;;;;;3.16;47.62;100381.47;106715;1270;22541;-75
2022/04/03 11:36:06;;;;;;;7.30;1.20;;;;;;;3.30;47.76;100378.11;106753;1271;25381;-74
2022/04/03 11:38:39;;;;;;;7.30;1.30;;;;;;;3.46;47.58;100382.25;106756;1271;22531;-75
2022/04/03 11:41:14;;;;;;;7.00;1.10;;;;;;;3.52;47.53;100380.23;106842;1269;22547;-75
2022/04/03 11:44:00;;;;;;;5.80;0.80;;;;;;;3.52;47.77;100382.98;106941;1271;22688;-76